sensor_id;sensor_type;location;lat;lon;timestamp;P1;durP1;ratioP1;P2;durP2;ratioP2
12224;SDS011;6175;50.956;11.064;2023-04-24T00:00:23;1.38;;;1.17;;
12224;SDS011;6175;50.956;11.064;2023-04-24T00:02:51;0.90;;;0.90;;
12224;SDS011;6175;50.956;11.064;2023-04-24T00:05:22;1.20;;;1.10;;
12224;SDS011;6175;50.956;11.064;2023-04-24T00:07:49;1.02;;;1.02;;
12224;SDS011;6175;50.956;11.064;2023-04-24T00:10:17;1.10;;;1.00;;
12224;SDS011;6175;50.956;11.064;2023-04-24T00:12:46;1.15;;;0.80;;
12224;SDS011;6175;50.956;11.064;2023-04-24T00:15:13;1.27;;;1.17;;
12224;SDS011;6175;50.956;11.064;2023-04-24T00:17:40;1.20;;;1.10;;
12224;SDS011;6175;50.956;11.064;2023-04-24T00:20:08;1.17;;;1.00;;
12224;SDS011;6175;50.956;11.064;2023-04-24T00:22:36;1.13;;;1.00;;
12224;SDS011;6175;50.956;11.064;2023-04-24T00:25:03;1.00;;;1.00;;
12224;SDS011;6175;50.956;11.064;2023-04-24T00:27:30;1.00;;;0.93;;
12224;SDS011;6175;50.956;11.064;2023-04-24T00:29:59;1.00;;;0.90;;
12224;SDS011;6175;50.956;11.064;2023-04-24T00:32:26;1.33;;;1.10;;
12224;SDS011;6175;50.956;11.064;2023-04-24T00:34:53;1.10;;;1.00;;
12224;SDS011;6175;50.956;11.064;2023-04-24T00:37:20;1.30;;;1.20;;
12224;SDS011;6175;50.956;11.064;2023-04-24T00:39:47;1.38;;;1.27;;
12224;SDS011;6175;50.956;11.064;2023-04-24T00:42:14;1.40;;;1.30;;
12224;SDS011;6175;50.956;11.064;2023-04-24T00:44:42;1.20;;;1.10;;
12224;SDS011;6175;50.956;11.064;2023-04-24T00:47:10;1.20;;;1.20;;
12224;SDS011;6175;50.956;11.064;2023-04-24T00:49:38;1.35;;;1.25;;
12224;SDS011;6175;50.956;11.064;2023-04-24T00:52:05;1.48;;;1.08;;
12224;SDS011;6175;50.956;11.064;2023-04-24T00:54:34;1.50;;;0.90;;
12224;SDS011;6175;50.956;11.064;2023-04-24T00:57:01;1.05;;;0.95;;
12224;SDS011;6175;50.956;11.064;2023-04-24T00:59:28;1.85;;;1.20;;
12224;SDS011;6175;50.956;11.064;2023-04-24T01:01:55;1.58;;;1.20;;
12224;SDS011;6175;50.956;11.064;2023-04-24T01:04:24;1.30;;;1.20;;
12224;SDS011;6175;50.956;11.064;2023-04-24T01:06:52;1.20;;;1.10;;
12224;SDS011;6175;50.956;11.064;2023-04-24T01:09:19;1.10;;;1.00;;
12224;SDS011;6175;50.956;11.064;2023-04-24T01:11:47;1.38;;;1.00;;
12224;SDS011;6175;50.956;11.064;2023-04-24T01:14:14;1.15;;;1.00;;
12224;SDS011;6175;50.956;11.064;2023-04-24T01:16:42;1.20;;;1.10;;
12224;SDS011;6175;50.956;11.064;2023-04-24T01:19:09;1.33;;;1.23;;
12224;SDS011;6175;50.956;11.064;2023-04-24T01:21:38;1.13;;;1.02;;
12224;SDS011;6175;50.956;11.064;2023-04-24T01:24:08;1.30;;;1.20;;
12224;SDS011;6175;50.956;11.064;2023-04-24T01:26:35;1.30;;;1.20;;
12224;SDS011;6175;50.956;11.064;2023-04-24T01:29:02;0.90;;;0.90;;
12224;SDS011;6175;50.956;11.064;2023-04-24T01:31:30;1.17;;;1.10;;
12224;SDS011;6175;50.956;11.064;2023-04-24T01:33:58;1.25;;;1.15;;
12224;SDS011;6175;50.956;11.064;2023-04-24T01:36:25;1.00;;;1.00;;
12224;SDS011;6175;50.956;11.064;2023-04-24T01:38:54;0.95;;;0.95;;
12224;SDS011;6175;50.956;11.064;2023-04-24T01:41:22;1.20;;;1.10;;
12224;SDS011;6175;50.956;11.064;2023-04-24T01:43:50;1.27;;;1.17;;
12224;SDS011;6175;50.956;11.064;2023-04-24T01:46:17;1.27;;;1.10;;
12224;SDS011;6175;50.956;11.064;2023-04-24T01:48:44;1.20;;;1.08;;
12224;SDS011;6175;50.956;11.064;2023-04-24T01:51:12;1.40;;;1.30;;
12224;SDS011;6175;50.956;11.064;2023-04-24T01:53:39;1.33;;;1.23;;
12224;SDS011;6175;50.956;11.064;2023-04-24T01:56:06;0.98;;;0.98;;
12224;SDS011;6175;50.956;11.064;2023-04-24T01:58:35;1.00;;;1.00;;
12224;SDS011;6175;50.956;11.064;2023-04-24T02:01:02;1.20;;;1.10;;
12224;SDS011;6175;50.956;11.064;2023-04-24T02:03:29;1.05;;;1.05;;
12224;SDS011;6175;50.956;11.064;2023-04-24T02:05:56;1.50;;;1.10;;
12224;SDS011;6175;50.956;11.064;2023-04-24T02:08:23;0.95;;;0.95;;
12224;SDS011;6175;50.956;11.064;2023-04-24T02:10:50;1.58;;;1.48;;
12224;SDS011;6175;50.956;11.064;2023-04-24T02:13:17;1.33;;;1.23;;
12224;SDS011;6175;50.956;11.064;2023-04-24T02:15:46;1.42;;;1.30;;
12224;SDS011;6175;50.956;11.064;2023-04-24T02:18:13;1.40;;;1.27;;
12224;SDS011;6175;50.956;11.064;2023-04-24T02:20:40;1.40;;;1.30;;
12224;SDS011;6175;50.956;11.064;2023-04-24T02:23:08;1.27;;;1.20;;
12224;SDS011;6175;50.956;11.064;2023-04-24T02:25:35;1.63;;;1.52;;
12224;SDS011;6175;50.956;11.064;2023-04-24T02:28:02;2.15;;;1.70;;
12224;SDS011;6175;50.956;11.064;2023-04-24T02:30:29;1.55;;;1.45;;
12224;SDS011;6175;50.956;11.064;2023-04-24T02:32:57;1.98;;;1.60;;
12224;SDS011;6175;50.956;11.064;2023-04-24T02:35:25;1.60;;;1.50;;
12224;SDS011;6175;50.956;11.064;2023-04-24T02:37:52;1.48;;;1.38;;
12224;SDS011;6175;50.956;11.064;2023-04-24T02:40:19;1.70;;;1.60;;
12224;SDS011;6175;50.956;11.064;2023-04-24T02:42:46;1.83;;;1.40;;
12224;SDS011;6175;50.956;11.064;2023-04-24T02:45:13;1.50;;;1.40;;
12224;SDS011;6175;50.956;11.064;2023-04-24T02:47:41;1.67;;;1.52;;
12224;SDS011;6175;50.956;11.064;2023-04-24T02:50:09;2.85;;;1.60;;
12224;SDS011;6175;50.956;11.064;2023-04-24T02:52:36;2.03;;;1.77;;
12224;SDS011;6175;50.956;11.064;2023-04-24T02:55:04;1.98;;;1.83;;
12224;SDS011;6175;50.956;11.064;2023-04-24T02:57:32;2.10;;;1.52;;
12224;SDS011;6175;50.956;11.064;2023-04-24T03:00:00;3.30;;;1.70;;
12224;SDS011;6175;50.956;11.064;2023-04-24T03:02:28;1.85;;;1.50;;
12224;SDS011;6175;50.956;11.064;2023-04-24T03:04:55;1.77;;;1.58;;
12224;SDS011;6175;50.956;11.064;2023-04-24T03:07:23;2.05;;;1.88;;
12224;SDS011;6175;50.956;11.064;2023-04-24T03:09:51;1.60;;;1.50;;
12224;SDS011;6175;50.956;11.064;2023-04-24T03:12:18;1.92;;;1.77;;
12224;SDS011;6175;50.956;11.064;2023-04-24T03:14:45;4.30;;;1.67;;
12224;SDS011;6175;50.956;11.064;2023-04-24T03:17:12;1.58;;;1.48;;
12224;SDS011;6175;50.956;11.064;2023-04-24T03:19:39;1.17;;;1.17;;
12224;SDS011;6175;50.956;11.064;2023-04-24T03:22:06;2.00;;;1.50;;
12224;SDS011;6175;50.956;11.064;2023-04-24T03:24:35;1.48;;;1.38;;
12224;SDS011;6175;50.956;11.064;2023-04-24T03:27:02;1.45;;;1.35;;
12224;SDS011;6175;50.956;11.064;2023-04-24T03:29:29;1.55;;;1.45;;
12224;SDS011;6175;50.956;11.064;2023-04-24T03:31:56;2.05;;;1.58;;
12224;SDS011;6175;50.956;11.064;2023-04-24T03:34:24;2.15;;;1.58;;
12224;SDS011;6175;50.956;11.064;2023-04-24T03:36:51;1.60;;;1.50;;
12224;SDS011;6175;50.956;11.064;2023-04-24T03:39:18;1.90;;;1.67;;
12224;SDS011;6175;50.956;11.064;2023-04-24T03:41:46;1.60;;;1.50;;
12224;SDS011;6175;50.956;11.064;2023-04-24T03:44:14;1.92;;;1.30;;
12224;SDS011;6175;50.956;11.064;2023-04-24T03:46:41;1.73;;;1.58;;
12224;SDS011;6175;50.956;11.064;2023-04-24T03:49:08;1.85;;;1.50;;
12224;SDS011;6175;50.956;11.064;2023-04-24T03:51:35;1.27;;;1.17;;
12224;SDS011;6175;50.956;11.064;2023-04-24T03:54:02;1.50;;;1.38;;
12224;SDS011;6175;50.956;11.064;2023-04-24T03:56:29;1.75;;;1.35;;
12224;SDS011;6175;50.956;11.064;2023-04-24T03:58:58;1.88;;;1.38;;
12224;SDS011;6175;50.956;11.064;2023-04-24T04:01:25;1.30;;;1.20;;
12224;SDS011;6175;50.956;11.064;2023-04-24T04:03:53;1.25;;;1.20;;
12224;SDS011;6175;50.956;11.064;2023-04-24T04:06:20;1.88;;;1.45;;
12224;SDS011;6175;50.956;11.064;2023-04-24T04:08:47;1.20;;;1.15;;
12224;SDS011;6175;50.956;11.064;2023-04-24T04:11:14;1.45;;;1.10;;
12224;SDS011;6175;50.956;11.064;2023-04-24T04:13:42;1.38;;;1.27;;
12224;SDS011;6175;50.956;11.064;2023-04-24T04:16:10;2.78;;;1.23;;
12224;SDS011;6175;50.956;11.064;2023-04-24T04:18:37;1.45;;;1.30;;
12224;SDS011;6175;50.956;11.064;2023-04-24T04:21:04;2.15;;;1.30;;
12224;SDS011;6175;50.956;11.064;2023-04-24T04:23:31;1.30;;;1.20;;
12224;SDS011;6175;50.956;11.064;2023-04-24T04:25:59;1.63;;;1.33;;
12224;SDS011;6175;50.956;11.064;2023-04-24T04:28:26;1.55;;;1.45;;
12224;SDS011;6175;50.956;11.064;2023-04-24T04:30:53;1.30;;;1.20;;
12224;SDS011;6175;50.956;11.064;2023-04-24T04:33:23;1.15;;;1.13;;
12224;SDS011;6175;50.956;11.064;2023-04-24T04:35:51;1.52;;;1.30;;
12224;SDS011;6175;50.956;11.064;2023-04-24T04:38:19;3.05;;;1.63;;
12224;SDS011;6175;50.956;11.064;2023-04-24T04:40:46;1.75;;;1.40;;
12224;SDS011;6175;50.956;11.064;2023-04-24T04:43:13;0.98;;;0.82;;
12224;SDS011;6175;50.956;11.064;2023-04-24T04:45:41;1.25;;;1.10;;
12224;SDS011;6175;50.956;11.064;2023-04-24T04:48:09;1.30;;;1.20;;
12224;SDS011;6175;50.956;11.064;2023-04-24T04:50:39;1.65;;;1.10;;
12224;SDS011;6175;50.956;11.064;2023-04-24T04:53:06;1.92;;;1.20;;
12224;SDS011;6175;50.956;11.064;2023-04-24T04:55:33;1.20;;;1.10;;
12224;SDS011;6175;50.956;11.064;2023-04-24T04:58:00;1.75;;;1.65;;
12224;SDS011;6175;50.956;11.064;2023-04-24T05:00:28;1.75;;;1.38;;
12224;SDS011;6175;50.956;11.064;2023-04-24T05:03:00;1.80;;;1.38;;
12224;SDS011;6175;50.956;11.064;2023-04-24T05:05:27;1.50;;;1.23;;
12224;SDS011;6175;50.956;11.064;2023-04-24T05:07:56;1.67;;;1.38;;
12224;SDS011;6175;50.956;11.064;2023-04-24T05:10:23;1.50;;;1.40;;
12224;SDS011;6175;50.956;11.064;2023-04-24T05:12:50;1.80;;;1.10;;
12224;SDS011;6175;50.956;11.064;2023-04-24T05:15:17;1.33;;;1.23;;
12224;SDS011;6175;50.956;11.064;2023-04-24T05:17:44;1.98;;;1.60;;
12224;SDS011;6175;50.956;11.064;2023-04-24T05:20:11;1.25;;;1.20;;
12224;SDS011;6175;50.956;11.064;2023-04-24T05:22:39;2.72;;;1.30;;
12224;SDS011;6175;50.956;11.064;2023-04-24T05:25:09;1.60;;;1.50;;
12224;SDS011;6175;50.956;11.064;2023-04-24T05:27:37;1.73;;;1.30;;
12224;SDS011;6175;50.956;11.064;2023-04-24T05:30:05;1.40;;;1.30;;
12224;SDS011;6175;50.956;11.064;2023-04-24T05:32:32;2.45;;;1.42;;
12224;SDS011;6175;50.956;11.064;2023-04-24T05:35:00;1.42;;;1.33;;
12224;SDS011;6175;50.956;11.064;2023-04-24T05:37:27;1.20;;;1.10;;
12224;SDS011;6175;50.956;11.064;2023-04-24T05:39:54;3.05;;;1.33;;
12224;SDS011;6175;50.956;11.064;2023-04-24T05:42:23;1.45;;;1.17;;
12224;SDS011;6175;50.956;11.064;2023-04-24T05:44:50;2.17;;;1.38;;
12224;SDS011;6175;50.956;11.064;2023-04-24T05:47:19;1.83;;;1.10;;
12224;SDS011;6175;50.956;11.064;2023-04-24T05:49:47;1.20;;;1.10;;
12224;SDS011;6175;50.956;11.064;2023-04-24T05:52:14;1.42;;;1.30;;
12224;SDS011;6175;50.956;11.064;2023-04-24T05:54:41;1.75;;;1.40;;
12224;SDS011;6175;50.956;11.064;2023-04-24T05:57:08;1.20;;;1.10;;
12224;SDS011;6175;50.956;11.064;2023-04-24T05:59:37;1.30;;;0.95;;
12224;SDS011;6175;50.956;11.064;2023-04-24T06:02:05;1.23;;;1.13;;
12224;SDS011;6175;50.956;11.064;2023-04-24T06:04:32;1.95;;;1.25;;
12224;SDS011;6175;50.956;11.064;2023-04-24T06:06:59;1.10;;;1.00;;
12224;SDS011;6175;50.956;11.064;2023-04-24T06:09:27;1.83;;;1.05;;
12224;SDS011;6175;50.956;11.064;2023-04-24T06:11:55;2.92;;;1.15;;
12224;SDS011;6175;50.956;11.064;2023-04-24T06:14:23;1.63;;;0.90;;
12224;SDS011;6175;50.956;11.064;2023-04-24T06:16:51;1.48;;;0.75;;
12224;SDS011;6175;50.956;11.064;2023-04-24T06:19:19;1.27;;;0.80;;
12224;SDS011;6175;50.956;11.064;2023-04-24T06:21:46;1.05;;;0.93;;
12224;SDS011;6175;50.956;11.064;2023-04-24T06:24:13;0.90;;;0.90;;
12224;SDS011;6175;50.956;11.064;2023-04-24T06:26:41;1.17;;;1.00;;
12224;SDS011;6175;50.956;11.064;2023-04-24T06:29:08;0.70;;;0.70;;
12224;SDS011;6175;50.956;11.064;2023-04-24T06:31:35;1.08;;;0.95;;
12224;SDS011;6175;50.956;11.064;2023-04-24T06:34:04;1.65;;;0.90;;
12224;SDS011;6175;50.956;11.064;2023-04-24T06:36:31;1.33;;;0.70;;
12224;SDS011;6175;50.956;11.064;2023-04-24T06:38:59;2.67;;;1.05;;
12224;SDS011;6175;50.956;11.064;2023-04-24T06:41:27;1.13;;;0.93;;
12224;SDS011;6175;50.956;11.064;2023-04-24T06:43:55;1.45;;;1.00;;
12224;SDS011;6175;50.956;11.064;2023-04-24T06:46:22;1.30;;;1.00;;
12224;SDS011;6175;50.956;11.064;2023-04-24T06:48:51;1.02;;;0.93;;
12224;SDS011;6175;50.956;11.064;2023-04-24T06:51:23;2.25;;;1.00;;
12224;SDS011;6175;50.956;11.064;2023-04-24T06:53:51;2.13;;;0.98;;
12224;SDS011;6175;50.956;11.064;2023-04-24T06:56:18;0.95;;;0.70;;
12224;SDS011;6175;50.956;11.064;2023-04-24T06:58:45;1.10;;;1.00;;
12224;SDS011;6175;50.956;11.064;2023-04-24T07:01:12;0.95;;;0.95;;
12224;SDS011;6175;50.956;11.064;2023-04-24T07:03:40;1.48;;;1.05;;
12224;SDS011;6175;50.956;11.064;2023-04-24T07:06:07;2.55;;;1.02;;
12224;SDS011;6175;50.956;11.064;2023-04-24T07:08:36;0.90;;;0.90;;
12224;SDS011;6175;50.956;11.064;2023-04-24T07:11:03;1.23;;;1.13;;
12224;SDS011;6175;50.956;11.064;2023-04-24T07:13:31;1.20;;;1.02;;
12224;SDS011;6175;50.956;11.064;2023-04-24T07:16:00;2.53;;;1.40;;
12224;SDS011;6175;50.956;11.064;2023-04-24T07:18:27;1.95;;;1.20;;
12224;SDS011;6175;50.956;11.064;2023-04-24T07:20:54;1.10;;;1.00;;
12224;SDS011;6175;50.956;11.064;2023-04-24T07:23:21;1.50;;;1.35;;
12224;SDS011;6175;50.956;11.064;2023-04-24T07:25:50;2.38;;;1.25;;
12224;SDS011;6175;50.956;11.064;2023-04-24T07:28:17;1.58;;;1.05;;
12224;SDS011;6175;50.956;11.064;2023-04-24T07:30:45;1.30;;;1.20;;
12224;SDS011;6175;50.956;11.064;2023-04-24T07:33:12;1.92;;;1.27;;
12224;SDS011;6175;50.956;11.064;2023-04-24T07:35:39;2.00;;;1.33;;
12224;SDS011;6175;50.956;11.064;2023-04-24T07:38:06;0.93;;;0.90;;
12224;SDS011;6175;50.956;11.064;2023-04-24T07:40:33;1.15;;;1.05;;
12224;SDS011;6175;50.956;11.064;2023-04-24T07:43:02;1.20;;;1.15;;
12224;SDS011;6175;50.956;11.064;2023-04-24T07:45:29;1.10;;;1.10;;
12224;SDS011;6175;50.956;11.064;2023-04-24T07:48:01;2.35;;;1.10;;
12224;SDS011;6175;50.956;11.064;2023-04-24T07:50:28;1.27;;;1.17;;
12224;SDS011;6175;50.956;11.064;2023-04-24T07:52:55;1.60;;;1.20;;
12224;SDS011;6175;50.956;11.064;2023-04-24T07:55:22;1.05;;;0.95;;
12224;SDS011;6175;50.956;11.064;2023-04-24T07:57:50;1.52;;;1.13;;
12224;SDS011;6175;50.956;11.064;2023-04-24T08:00:19;2.50;;;1.20;;
12224;SDS011;6175;50.956;11.064;2023-04-24T08:02:47;1.10;;;1.00;;
12224;SDS011;6175;50.956;11.064;2023-04-24T08:05:14;1.00;;;1.00;;
12224;SDS011;6175;50.956;11.064;2023-04-24T08:07:41;2.00;;;1.50;;
12224;SDS011;6175;50.956;11.064;2023-04-24T08:10:09;1.13;;;0.95;;
12224;SDS011;6175;50.956;11.064;2023-04-24T08:12:36;1.20;;;1.10;;
12224;SDS011;6175;50.956;11.064;2023-04-24T08:15:04;1.30;;;1.20;;
12224;SDS011;6175;50.956;11.064;2023-04-24T08:17:33;1.30;;;1.20;;
12224;SDS011;6175;50.956;11.064;2023-04-24T08:20:00;2.22;;;1.10;;
12224;SDS011;6175;50.956;11.064;2023-04-24T08:22:27;2.65;;;1.23;;
12224;SDS011;6175;50.956;11.064;2023-04-24T08:24:54;1.27;;;1.17;;
12224;SDS011;6175;50.956;11.064;2023-04-24T08:27:22;1.30;;;1.15;;
12224;SDS011;6175;50.956;11.064;2023-04-24T08:29:49;1.38;;;1.17;;
12224;SDS011;6175;50.956;11.064;2023-04-24T08:32:16;3.67;;;1.38;;
12224;SDS011;6175;50.956;11.064;2023-04-24T08:34:45;1.30;;;1.20;;
12224;SDS011;6175;50.956;11.064;2023-04-24T08:37:12;2.65;;;1.27;;
12224;SDS011;6175;50.956;11.064;2023-04-24T08:39:39;1.00;;;1.00;;
12224;SDS011;6175;50.956;11.064;2023-04-24T08:42:07;1.45;;;1.35;;
12224;SDS011;6175;50.956;11.064;2023-04-24T08:44:35;1.40;;;1.30;;
12224;SDS011;6175;50.956;11.064;2023-04-24T08:47:02;1.42;;;1.35;;
12224;SDS011;6175;50.956;11.064;2023-04-24T08:49:30;1.42;;;1.25;;
12224;SDS011;6175;50.956;11.064;2023-04-24T08:51:59;1.35;;;1.20;;
12224;SDS011;6175;50.956;11.064;2023-04-24T08:54:27;2.38;;;1.30;;
12224;SDS011;6175;50.956;11.064;2023-04-24T08:56:55;1.20;;;1.10;;
12224;SDS011;6175;50.956;11.064;2023-04-24T08:59:26;2.58;;;1.42;;
12224;SDS011;6175;50.956;11.064;2023-04-24T09:01:54;1.80;;;1.25;;
12224;SDS011;6175;50.956;11.064;2023-04-24T09:04:22;2.28;;;1.02;;
12224;SDS011;6175;50.956;11.064;2023-04-24T09:06:49;1.33;;;1.23;;
12224;SDS011;6175;50.956;11.064;2023-04-24T09:09:18;1.98;;;1.30;;
12224;SDS011;6175;50.956;11.064;2023-04-24T09:11:45;1.33;;;1.20;;
12224;SDS011;6175;50.956;11.064;2023-04-24T09:14:13;4.15;;;1.25;;
12224;SDS011;6175;50.956;11.064;2023-04-24T09:16:40;2.70;;;1.40;;
12224;SDS011;6175;50.956;11.064;2023-04-24T09:19:08;1.15;;;0.98;;
12224;SDS011;6175;50.956;11.064;2023-04-24T09:21:35;1.23;;;1.13;;
12224;SDS011;6175;50.956;11.064;2023-04-24T09:24:03;1.30;;;1.20;;
12224;SDS011;6175;50.956;11.064;2023-04-24T09:26:34;1.85;;;1.30;;
12224;SDS011;6175;50.956;11.064;2023-04-24T09:29:03;1.20;;;1.10;;
12224;SDS011;6175;50.956;11.064;2023-04-24T09:31:31;4.03;;;1.30;;
12224;SDS011;6175;50.956;11.064;2023-04-24T09:33:59;1.52;;;1.35;;
12224;SDS011;6175;50.956;11.064;2023-04-24T09:36:28;2.33;;;1.50;;
12224;SDS011;6175;50.956;11.064;2023-04-24T09:38:58;1.77;;;1.40;;
12224;SDS011;6175;50.956;11.064;2023-04-24T09:41:25;6.82;;;1.30;;
12224;SDS011;6175;50.956;11.064;2023-04-24T09:43:55;2.25;;;1.30;;
12224;SDS011;6175;50.956;11.064;2023-04-24T09:46:29;2.70;;;1.45;;
12224;SDS011;6175;50.956;11.064;2023-04-24T09:48:57;1.15;;;1.13;;
12224;SDS011;6175;50.956;11.064;2023-04-24T09:51:33;1.50;;;1.40;;
12224;SDS011;6175;50.956;11.064;2023-04-24T09:54:01;1.50;;;1.40;;
12224;SDS011;6175;50.956;11.064;2023-04-24T09:56:29;1.90;;;1.27;;
12224;SDS011;6175;50.956;11.064;2023-04-24T09:59:06;1.88;;;1.40;;
12224;SDS011;6175;50.956;11.064;2023-04-24T10:01:34;2.53;;;1.40;;
12224;SDS011;6175;50.956;11.064;2023-04-24T10:04:03;1.40;;;1.30;;
12224;SDS011;6175;50.956;11.064;2023-04-24T10:06:32;1.40;;;1.30;;
12224;SDS011;6175;50.956;11.064;2023-04-24T10:09:00;1.45;;;1.25;;
12224;SDS011;6175;50.956;11.064;2023-04-24T10:11:28;1.30;;;1.20;;
12224;SDS011;6175;50.956;11.064;2023-04-24T10:13:56;1.98;;;1.40;;
12224;SDS011;6175;50.956;11.064;2023-04-24T10:16:25;1.55;;;1.23;;
12224;SDS011;6175;50.956;11.064;2023-04-24T10:18:53;1.50;;;1.40;;
12224;SDS011;6175;50.956;11.064;2023-04-24T10:21:20;1.80;;;1.50;;
12224;SDS011;6175;50.956;11.064;2023-04-24T10:23:48;2.45;;;1.60;;
12224;SDS011;6175;50.956;11.064;2023-04-24T10:26:16;3.30;;;1.80;;
12224;SDS011;6175;50.956;11.064;2023-04-24T10:28:44;2.25;;;1.67;;
12224;SDS011;6175;50.956;11.064;2023-04-24T10:31:12;1.45;;;1.25;;
12224;SDS011;6175;50.956;11.064;2023-04-24T10:33:41;1.55;;;1.30;;
12224;SDS011;6175;50.956;11.064;2023-04-24T10:36:09;1.90;;;1.50;;
12224;SDS011;6175;50.956;11.064;2023-04-24T10:38:36;2.05;;;1.58;;
12224;SDS011;6175;50.956;11.064;2023-04-24T10:41:08;1.67;;;1.58;;
12224;SDS011;6175;50.956;11.064;2023-04-24T10:43:41;2.40;;;1.60;;
12224;SDS011;6175;50.956;11.064;2023-04-24T10:46:08;3.55;;;2.00;;
12224;SDS011;6175;50.956;11.064;2023-04-24T10:48:41;1.52;;;1.42;;
12224;SDS011;6175;50.956;11.064;2023-04-24T10:51:11;2.47;;;1.77;;
12224;SDS011;6175;50.956;11.064;2023-04-24T10:53:38;1.48;;;1.38;;
12224;SDS011;6175;50.956;11.064;2023-04-24T10:56:06;1.77;;;1.67;;
12224;SDS011;6175;50.956;11.064;2023-04-24T10:58:38;1.60;;;1.50;;
12224;SDS011;6175;50.956;11.064;2023-04-24T11:01:10;1.90;;;1.70;;
12224;SDS011;6175;50.956;11.064;2023-04-24T11:03:54;2.22;;;1.70;;
12224;SDS011;6175;50.956;11.064;2023-04-24T11:06:28;2.05;;;1.85;;
12224;SDS011;6175;50.956;11.064;2023-04-24T11:08:58;1.77;;;1.50;;
12224;SDS011;6175;50.956;11.064;2023-04-24T11:11:29;1.55;;;1.45;;
12224;SDS011;6175;50.956;11.064;2023-04-24T11:14:08;2.10;;;1.83;;
12224;SDS011;6175;50.956;11.064;2023-04-24T11:16:37;1.95;;;1.50;;
12224;SDS011;6175;50.956;11.064;2023-04-24T11:19:07;1.75;;;1.65;;
12224;SDS011;6175;50.956;11.064;2023-04-24T11:21:42;1.90;;;1.70;;
12224;SDS011;6175;50.956;11.064;2023-04-24T11:27:06;2.08;;;1.85;;
12224;SDS011;6175;50.956;11.064;2023-04-24T11:29:39;1.70;;;1.60;;
12224;SDS011;6175;50.956;11.064;2023-04-24T11:32:17;1.77;;;1.60;;
12224;SDS011;6175;50.956;11.064;2023-04-24T11:34:48;1.73;;;1.50;;
12224;SDS011;6175;50.956;11.064;2023-04-24T11:37:15;2.28;;;1.38;;
12224;SDS011;6175;50.956;11.064;2023-04-24T11:39:43;1.90;;;1.40;;
12224;SDS011;6175;50.956;11.064;2023-04-24T11:42:09;1.40;;;1.30;;
12224;SDS011;6175;50.956;11.064;2023-04-24T11:44:37;1.48;;;1.38;;
12224;SDS011;6175;50.956;11.064;2023-04-24T11:47:04;3.55;;;1.67;;
12224;SDS011;6175;50.956;11.064;2023-04-24T11:49:32;1.50;;;1.40;;
12224;SDS011;6175;50.956;11.064;2023-04-24T11:52:00;3.35;;;1.80;;
12224;SDS011;6175;50.956;11.064;2023-04-24T11:54:28;1.60;;;1.50;;
12224;SDS011;6175;50.956;11.064;2023-04-24T11:56:55;1.95;;;1.85;;
12224;SDS011;6175;50.956;11.064;2023-04-24T11:59:23;1.55;;;1.45;;
12224;SDS011;6175;50.956;11.064;2023-04-24T12:01:50;2.40;;;1.67;;
12224;SDS011;6175;50.956;11.064;2023-04-24T12:04:17;2.05;;;1.60;;
12224;SDS011;6175;50.956;11.064;2023-04-24T12:07:01;1.67;;;1.58;;
12224;SDS011;6175;50.956;11.064;2023-04-24T12:09:39;1.67;;;1.58;;
12224;SDS011;6175;50.956;11.064;2023-04-24T12:12:07;1.95;;;1.75;;
12224;SDS011;6175;50.956;11.064;2023-04-24T12:14:41;2.25;;;1.75;;
12224;SDS011;6175;50.956;11.064;2023-04-24T12:17:08;1.70;;;1.60;;
12224;SDS011;6175;50.956;11.064;2023-04-24T12:19:36;1.80;;;1.40;;
12224;SDS011;6175;50.956;11.064;2023-04-24T12:22:05;1.65;;;1.52;;
12224;SDS011;6175;50.956;11.064;2023-04-24T12:24:33;0.98;;;0.90;;
12224;SDS011;6175;50.956;11.064;2023-04-24T12:27:00;2.42;;;1.50;;
12224;SDS011;6175;50.956;11.064;2023-04-24T12:29:27;1.50;;;1.40;;
12224;SDS011;6175;50.956;11.064;2023-04-24T12:31:54;1.27;;;1.17;;
12224;SDS011;6175;50.956;11.064;2023-04-24T12:34:22;1.10;;;1.10;;
12224;SDS011;6175;50.956;11.064;2023-04-24T12:36:50;1.45;;;1.35;;
12224;SDS011;6175;50.956;11.064;2023-04-24T12:39:19;0.90;;;0.90;;
12224;SDS011;6175;50.956;11.064;2023-04-24T12:41:54;1.05;;;1.02;;
12224;SDS011;6175;50.956;11.064;2023-04-24T12:44:30;1.25;;;1.17;;
12224;SDS011;6175;50.956;11.064;2023-04-24T12:46:59;1.17;;;1.08;;
12224;SDS011;6175;50.956;11.064;2023-04-24T12:49:26;1.17;;;1.10;;
12224;SDS011;6175;50.956;11.064;2023-04-24T12:51:53;1.42;;;1.25;;
12224;SDS011;6175;50.956;11.064;2023-04-24T12:54:22;2.33;;;1.70;;
12224;SDS011;6175;50.956;11.064;2023-04-24T12:56:49;1.65;;;1.55;;
12224;SDS011;6175;50.956;11.064;2023-04-24T12:59:16;1.77;;;1.67;;
12224;SDS011;6175;50.956;11.064;2023-04-24T13:01:43;2.00;;;1.67;;
12224;SDS011;6175;50.956;11.064;2023-04-24T13:04:11;4.13;;;2.08;;
12224;SDS011;6175;50.956;11.064;2023-04-24T13:06:38;1.73;;;1.40;;
12224;SDS011;6175;50.956;11.064;2023-04-24T13:09:05;4.03;;;1.48;;
12224;SDS011;6175;50.956;11.064;2023-04-24T13:11:34;1.45;;;1.17;;
12224;SDS011;6175;50.956;11.064;2023-04-24T13:14:01;1.50;;;1.20;;
12224;SDS011;6175;50.956;11.064;2023-04-24T13:16:28;1.00;;;1.00;;
12224;SDS011;6175;50.956;11.064;2023-04-24T13:18:55;1.02;;;1.02;;
12224;SDS011;6175;50.956;11.064;2023-04-24T13:21:23;1.17;;;1.08;;
12224;SDS011;6175;50.956;11.064;2023-04-24T13:23:51;1.67;;;0.93;;
12224;SDS011;6175;50.956;11.064;2023-04-24T13:26:18;0.90;;;0.90;;
12224;SDS011;6175;50.956;11.064;2023-04-24T13:28:46;0.82;;;0.82;;
12224;SDS011;6175;50.956;11.064;2023-04-24T13:31:14;0.82;;;0.80;;
12224;SDS011;6175;50.956;11.064;2023-04-24T13:33:41;1.20;;;1.10;;
12224;SDS011;6175;50.956;11.064;2023-04-24T13:36:08;1.15;;;1.05;;
12224;SDS011;6175;50.956;11.064;2023-04-24T13:38:35;0.90;;;0.80;;
12224;SDS011;6175;50.956;11.064;2023-04-24T13:41:03;1.10;;;0.90;;
12224;SDS011;6175;50.956;11.064;2023-04-24T13:43:30;0.98;;;0.90;;
12224;SDS011;6175;50.956;11.064;2023-04-24T13:45:58;0.70;;;0.70;;
12224;SDS011;6175;50.956;11.064;2023-04-24T13:48:27;0.82;;;0.80;;
12224;SDS011;6175;50.956;11.064;2023-04-24T13:50:55;0.80;;;0.80;;
12224;SDS011;6175;50.956;11.064;2023-04-24T13:53:22;1.00;;;0.90;;
12224;SDS011;6175;50.956;11.064;2023-04-24T13:55:49;0.70;;;0.70;;
12224;SDS011;6175;50.956;11.064;2023-04-24T13:58:16;0.88;;;0.88;;
12224;SDS011;6175;50.956;11.064;2023-04-24T14:00:44;1.40;;;1.30;;
12224;SDS011;6175;50.956;11.064;2023-04-24T14:03:12;0.77;;;0.75;;
12224;SDS011;6175;50.956;11.064;2023-04-24T14:05:40;1.27;;;0.93;;
12224;SDS011;6175;50.956;11.064;2023-04-24T14:08:07;1.15;;;1.00;;
12224;SDS011;6175;50.956;11.064;2023-04-24T14:10:34;1.20;;;1.00;;
12224;SDS011;6175;50.956;11.064;2023-04-24T14:13:01;0.75;;;0.75;;
12224;SDS011;6175;50.956;11.064;2023-04-24T14:15:28;1.13;;;0.95;;
12224;SDS011;6175;50.956;11.064;2023-04-24T14:17:56;0.90;;;0.82;;
12224;SDS011;6175;50.956;11.064;2023-04-24T14:20:24;0.60;;;0.60;;
12224;SDS011;6175;50.956;11.064;2023-04-24T14:22:51;1.55;;;0.80;;
12224;SDS011;6175;50.956;11.064;2023-04-24T14:25:18;0.70;;;0.70;;
12224;SDS011;6175;50.956;11.064;2023-04-24T14:27:47;0.60;;;0.60;;
12224;SDS011;6175;50.956;11.064;2023-04-24T14:30:14;0.50;;;0.50;;
12224;SDS011;6175;50.956;11.064;2023-04-24T14:32:42;0.88;;;0.52;;
12224;SDS011;6175;50.956;11.064;2023-04-24T14:35:09;0.60;;;0.60;;
12224;SDS011;6175;50.956;11.064;2023-04-24T14:37:38;1.55;;;0.70;;
12224;SDS011;6175;50.956;11.064;2023-04-24T14:40:06;2.22;;;0.57;;
12224;SDS011;6175;50.956;11.064;2023-04-24T14:42:34;0.65;;;0.52;;
12224;SDS011;6175;50.956;11.064;2023-04-24T14:45:01;1.55;;;0.60;;
12224;SDS011;6175;50.956;11.064;2023-04-24T14:47:29;0.80;;;0.80;;
12224;SDS011;6175;50.956;11.064;2023-04-24T14:49:56;0.70;;;0.70;;
12224;SDS011;6175;50.956;11.064;2023-04-24T14:52:23;0.60;;;0.60;;
12224;SDS011;6175;50.956;11.064;2023-04-24T14:54:52;0.52;;;0.52;;